createdAt,value
2023-01-01T00:01:20.344Z,6.38
2023-01-01T00:03:53.189Z,4.97
2023-01-01T00:06:19.761Z,3.55
2023-01-01T00:08:46.350Z,3.70
2023-01-01T00:11:12.804Z,3.88
2023-01-01T00:13:40.200Z,6.05
2023-01-01T00:16:13.441Z,12.18
2023-01-01T00:18:40.300Z,19.15
2023-01-01T00:21:07.684Z,19.52
2023-01-01T00:23:34.681Z,19.42
2023-01-01T00:26:01.208Z,23.13
2023-01-01T00:28:28.051Z,22.55
2023-01-01T00:30:55.154Z,23.90
2023-01-01T00:33:21.773Z,25.10
2023-01-01T00:35:48.228Z,21.30
2023-01-01T00:38:14.730Z,24.38
2023-01-01T00:40:41.476Z,24.60
2023-01-01T00:43:08.039Z,29.02
2023-01-01T00:45:34.624Z,31.52
2023-01-01T00:48:01.143Z,28.73
2023-01-01T00:50:27.622Z,28.27
2023-01-01T00:52:54.115Z,28.25
2023-01-01T00:55:20.627Z,23.27
2023-01-01T00:57:47.098Z,23.60
2023-01-01T01:00:15.144Z,28.95
2023-01-01T01:02:41.862Z,25.63
2023-01-01T01:05:08.679Z,29.60
2023-01-01T01:07:38.588Z,26.40
2023-01-01T01:10:05.284Z,26.88
2023-01-01T01:12:33.253Z,22.52
2023-01-01T01:14:59.699Z,22.65
2023-01-01T01:17:26.192Z,26.65
2023-01-01T01:19:52.665Z,21.25
2023-01-01T01:22:22.909Z,19.33
2023-01-01T01:24:54.389Z,22.67
2023-01-01T01:27:20.932Z,21.65
2023-01-01T01:29:47.376Z,20.85
2023-01-01T01:32:13.860Z,17.88
2023-01-01T01:34:40.347Z,10.90
2023-01-01T01:37:06.802Z,10.48
2023-01-01T01:39:33.364Z,9.15
2023-01-01T01:42:02.443Z,9.30
2023-01-01T01:44:44.062Z,8.38
2023-01-01T01:47:43.074Z,8.93
2023-01-01T01:50:12.790Z,8.68
2023-01-01T01:52:42.505Z,8.35
2023-01-01T01:55:09.528Z,8.10
2023-01-01T01:57:37.196Z,7.25
2023-01-01T02:00:10.709Z,6.65
2023-01-01T02:02:45.387Z,5.65
2023-01-01T02:05:12.080Z,4.35
2023-01-01T02:07:38.849Z,3.78
2023-01-01T02:10:05.552Z,3.47
2023-01-01T02:12:32.081Z,4.10
2023-01-01T02:14:58.713Z,4.13
2023-01-01T02:17:38.520Z,2.92
2023-01-01T02:20:12.236Z,2.38
2023-01-01T02:22:57.892Z,2.20
2023-01-01T02:25:34.640Z,2.10
2023-01-01T02:28:15.713Z,1.50
2023-01-01T02:30:45.112Z,1.10
2023-01-01T02:33:14.193Z,1.20
2023-01-01T02:35:43.017Z,0.70
2023-01-01T02:38:11.208Z,0.80
2023-01-01T02:40:41.145Z,0.77
2023-01-01T02:43:07.670Z,0.80
2023-01-01T02:45:34.682Z,0.85
2023-01-01T02:48:07.688Z,0.70
2023-01-01T02:50:35.554Z,0.70
2023-01-01T02:53:08.081Z,1.30
2023-01-01T02:55:37.706Z,0.75
2023-01-01T02:58:30.031Z,0.85
2023-01-01T03:00:59.054Z,1.10
2023-01-01T03:03:31.344Z,1.23
2023-01-01T03:06:24.230Z,1.88
2023-01-01T03:09:07.781Z,0.77
2023-01-01T03:11:54.519Z,1.00
2023-01-01T03:14:30.233Z,1.02
2023-01-01T03:17:03.951Z,1.73
2023-01-01T03:22:15.510Z,2.33
2023-01-01T03:24:44.496Z,1.70
2023-01-01T03:27:16.076Z,1.55
2023-01-01T03:29:43.431Z,1.20
2023-01-01T03:32:14.362Z,1.00
2023-01-01T03:34:42.715Z,0.95
2023-01-01T03:37:11.088Z,0.80
2023-01-01T03:39:39.952Z,0.90
2023-01-01T03:42:09.226Z,0.93
2023-01-01T03:44:38.586Z,1.05
2023-01-01T03:47:06.109Z,1.15
2023-01-01T03:49:33.018Z,1.10
2023-01-01T03:52:08.464Z,1.60
2023-01-01T03:54:40.937Z,1.17
2023-01-01T03:57:16.164Z,1.00
2023-01-01T04:00:02.479Z,2.22
2023-01-01T04:02:32.279Z,1.88
2023-01-01T04:04:59.904Z,1.88
2023-01-01T04:07:26.574Z,3.15
2023-01-01T04:09:54.093Z,0.85
2023-01-01T04:12:20.929Z,0.77
2023-01-01T04:14:47.443Z,1.25
2023-01-01T04:17:14.230Z,0.93
2023-01-01T04:19:40.728Z,0.55
2023-01-01T04:22:07.556Z,0.90
2023-01-01T04:24:34.026Z,1.08
2023-01-01T04:27:00.489Z,2.30
2023-01-01T04:29:27.021Z,1.08
2023-01-01T04:31:53.626Z,1.40
2023-01-01T04:34:20.081Z,0.50
2023-01-01T04:36:46.642Z,0.98
2023-01-01T04:39:13.121Z,0.90
2023-01-01T04:41:39.591Z,1.10
2023-01-01T04:44:06.134Z,1.45
2023-01-01T04:46:32.634Z,0.98
2023-01-01T04:48:59.174Z,1.00
2023-01-01T04:51:25.784Z,0.90
2023-01-01T04:53:52.279Z,1.00
2023-01-01T04:56:20.013Z,0.90
2023-01-01T04:58:46.997Z,1.08
2023-01-01T05:01:21.124Z,0.90
2023-01-01T05:03:48.255Z,1.13
2023-01-01T05:06:15.292Z,0.73
2023-01-01T05:08:42.749Z,0.88
2023-01-01T05:11:13.708Z,0.73
2023-01-01T05:13:41.446Z,2.05
2023-01-01T05:16:09.176Z,1.15
2023-01-01T05:18:36.076Z,0.85
2023-01-01T05:21:03.814Z,0.95
2023-01-01T05:23:30.326Z,1.10
2023-01-01T05:25:56.943Z,0.95
2023-01-01T05:28:23.701Z,0.90
2023-01-01T05:30:50.717Z,0.70
2023-01-01T05:33:17.256Z,1.00
2023-01-01T05:35:43.740Z,0.88
2023-01-01T05:38:10.265Z,0.88
2023-01-01T05:40:38.803Z,1.15
2023-01-01T05:43:05.443Z,0.80
2023-01-01T05:45:31.969Z,1.02
2023-01-01T05:47:58.510Z,1.10
2023-01-01T05:50:25.160Z,0.80
2023-01-01T05:52:51.652Z,2.50
2023-01-01T05:55:18.135Z,0.65
2023-01-01T05:57:44.586Z,1.00
2023-01-01T06:00:11.367Z,0.73
2023-01-01T06:02:37.828Z,0.95
2023-01-01T06:05:04.467Z,0.73
2023-01-01T06:07:31.144Z,0.77
2023-01-01T06:09:57.606Z,0.98
2023-01-01T06:12:25.396Z,0.80
2023-01-01T06:14:51.907Z,0.77
2023-01-01T06:17:18.426Z,0.93
2023-01-01T06:19:44.931Z,0.75
2023-01-01T06:22:11.416Z,0.60
2023-01-01T06:24:39.246Z,0.88
2023-01-01T06:27:07.100Z,1.05
2023-01-01T06:29:33.577Z,1.27
2023-01-01T06:32:00.051Z,0.70
2023-01-01T06:34:26.535Z,3.75
2023-01-01T06:36:53.050Z,4.68
2023-01-01T06:39:19.580Z,2.00
2023-01-01T06:41:46.061Z,6.30
2023-01-01T06:44:12.547Z,4.63
2023-01-01T06:46:39.015Z,3.75
2023-01-01T06:49:11.010Z,1.83
2023-01-01T06:51:39.283Z,1.40
2023-01-01T06:54:06.169Z,0.88
2023-01-01T06:56:32.685Z,1.00
2023-01-01T06:58:59.203Z,0.80
2023-01-01T07:01:27.248Z,0.70
2023-01-01T07:03:57.918Z,0.90
2023-01-01T07:06:24.998Z,0.73
2023-01-01T07:08:51.659Z,0.70
2023-01-01T07:11:18.506Z,1.45
2023-01-01T07:13:44.989Z,1.15
2023-01-01T07:16:13.384Z,1.92
2023-01-01T07:18:40.473Z,0.88
2023-01-01T07:21:07.737Z,0.95
2023-01-01T07:23:35.365Z,1.20
2023-01-01T07:26:02.117Z,1.40
2023-01-01T07:28:28.640Z,1.20
2023-01-01T07:30:55.181Z,1.40
2023-01-01T07:33:23.637Z,0.90
2023-01-01T07:35:50.526Z,1.23
2023-01-01T07:38:17.002Z,1.52
2023-01-01T07:40:43.497Z,1.02
2023-01-01T07:43:10.357Z,1.38
2023-01-01T07:45:36.942Z,1.48
2023-01-01T07:48:03.556Z,1.58
2023-01-01T07:50:31.132Z,1.20
2023-01-01T07:52:57.807Z,1.00
2023-01-01T07:55:24.406Z,0.90
2023-01-01T07:57:50.899Z,1.02
2023-01-01T08:00:18.495Z,1.48
2023-01-01T08:02:45.471Z,1.00
2023-01-01T08:05:12.159Z,0.85
2023-01-01T08:07:38.730Z,1.30
2023-01-01T08:10:05.810Z,1.33
2023-01-01T08:12:32.365Z,1.50
2023-01-01T08:14:58.889Z,0.90
2023-01-01T08:17:25.380Z,1.48
2023-01-01T08:19:52.756Z,1.08
2023-01-01T08:22:19.497Z,0.98
2023-01-01T08:24:45.997Z,1.42
2023-01-01T08:27:13.899Z,0.80
2023-01-01T08:29:40.560Z,0.80
2023-01-01T08:32:07.075Z,1.17
2023-01-01T08:34:33.553Z,1.70
2023-01-01T08:37:00.104Z,1.08
2023-01-01T08:39:26.696Z,1.23
2023-01-01T08:41:53.237Z,1.05
2023-01-01T08:44:19.897Z,1.27
2023-01-01T08:46:46.473Z,1.15
2023-01-01T08:49:13.044Z,1.20
2023-01-01T08:51:39.591Z,1.10
2023-01-01T08:54:06.168Z,1.25
2023-01-01T08:56:32.675Z,1.60
2023-01-01T08:59:04.273Z,1.10
2023-01-01T09:01:31.420Z,1.40
2023-01-01T09:03:58.101Z,1.70
2023-01-01T09:06:24.632Z,1.23
2023-01-01T09:08:51.602Z,1.48
2023-01-01T09:11:21.718Z,1.27
2023-01-01T09:13:48.232Z,1.58
2023-01-01T09:16:14.727Z,1.58
2023-01-01T09:18:41.190Z,1.80
2023-01-01T09:21:07.732Z,1.92
2023-01-01T09:23:34.128Z,1.90
2023-01-01T09:26:04.905Z,2.65
2023-01-01T09:28:31.493Z,2.10
2023-01-01T09:30:58.035Z,2.60
2023-01-01T09:33:24.612Z,2.28
2023-01-01T09:35:51.110Z,3.60
2023-01-01T09:38:17.614Z,3.10
2023-01-01T09:40:50.777Z,2.47
2023-01-01T09:43:30.569Z,1.73
2023-01-01T09:46:07.665Z,2.25
2023-01-01T09:48:36.348Z,1.55
2023-01-01T09:51:04.844Z,2.35
2023-01-01T09:53:32.935Z,3.00
2023-01-01T09:56:00.701Z,2.83
2023-01-01T09:58:28.197Z,2.08
2023-01-01T10:00:56.363Z,2.53
2023-01-01T10:03:28.759Z,2.05
2023-01-01T10:06:05.174Z,1.98
2023-01-01T10:08:43.053Z,2.15
2023-01-01T10:11:18.433Z,1.45
2023-01-01T10:13:46.075Z,1.55
2023-01-01T10:16:31.160Z,1.30
2023-01-01T10:18:58.957Z,0.90
2023-01-01T10:21:32.589Z,1.10
2023-01-01T10:24:14.328Z,1.08
2023-01-01T10:26:40.829Z,0.95
2023-01-01T10:29:07.293Z,1.63
2023-01-01T10:31:34.404Z,1.65
2023-01-01T10:34:06.368Z,2.33
2023-01-01T10:36:32.974Z,1.58
2023-01-01T10:38:59.431Z,2.05
2023-01-01T10:41:25.904Z,1.83
2023-01-01T10:43:52.459Z,1.80
2023-01-01T10:46:26.054Z,1.88
2023-01-01T10:49:12.295Z,1.25
2023-01-01T10:51:43.933Z,1.30
2023-01-01T10:54:26.536Z,1.23
2023-01-01T10:56:57.718Z,1.50
2023-01-01T10:59:38.115Z,0.95
2023-01-01T11:02:15.315Z,1.08
2023-01-01T11:04:42.050Z,1.13
2023-01-01T11:07:08.563Z,0.90
2023-01-01T11:09:38.593Z,0.93
2023-01-01T11:12:15.200Z,0.93
2023-01-01T11:14:53.349Z,0.90
2023-01-01T11:17:24.869Z,0.75
2023-01-01T11:19:55.608Z,0.82
2023-01-01T11:22:35.454Z,0.57
2023-01-01T11:25:02.688Z,0.88
2023-01-01T11:27:29.243Z,1.13
2023-01-01T11:30:34.296Z,0.70
2023-01-01T11:33:01.967Z,1.40
2023-01-01T11:35:30.715Z,0.93
2023-01-01T11:37:58.124Z,0.70
2023-01-01T11:40:27.480Z,1.08
2023-01-01T11:42:58.559Z,1.83
2023-01-01T11:45:31.713Z,1.27
2023-01-01T11:48:05.736Z,0.90
2023-01-01T11:50:32.350Z,1.40
2023-01-01T11:53:00.188Z,1.10
2023-01-01T11:55:39.120Z,1.75
2023-01-01T11:58:17.545Z,1.20
2023-01-01T12:00:47.596Z,0.90
2023-01-01T12:03:24.637Z,1.95
2023-01-01T12:05:58.122Z,1.58
2023-01-01T12:08:36.764Z,1.40
2023-01-01T12:11:18.749Z,2.20
2023-01-01T12:13:48.627Z,1.60
2023-01-01T12:16:21.066Z,1.58
2023-01-01T12:18:52.649Z,1.80
2023-01-01T12:21:23.892Z,1.83
2023-01-01T12:23:50.587Z,1.38
2023-01-01T12:26:22.836Z,1.45
2023-01-01T12:29:01.440Z,1.92
2023-01-01T12:31:33.919Z,2.45
2023-01-01T12:34:06.423Z,2.05
2023-01-01T12:36:52.327Z,4.45
2023-01-01T12:39:49.118Z,4.78
2023-01-01T12:42:30.870Z,2.92
2023-01-01T12:45:00.439Z,3.03
2023-01-01T12:47:45.284Z,3.22
2023-01-01T12:50:29.143Z,2.30
2023-01-01T12:53:07.612Z,2.55
2023-01-01T12:55:50.925Z,3.45
2023-01-01T12:58:18.915Z,2.90
2023-01-01T13:00:52.472Z,2.80
2023-01-01T13:03:21.401Z,1.88
2023-01-01T13:05:49.463Z,1.33
2023-01-01T13:08:15.940Z,1.30
2023-01-01T13:10:47.529Z,1.27
2023-01-01T13:13:14.610Z,1.75
2023-01-01T13:15:41.585Z,1.70
2023-01-01T13:18:17.033Z,1.80
2023-01-01T13:20:57.490Z,2.10
2023-01-01T13:23:29.953Z,1.92
2023-01-01T13:26:15.240Z,1.48
2023-01-01T13:28:41.737Z,2.08
2023-01-01T13:31:08.219Z,2.05
2023-01-01T13:33:36.913Z,2.15
2023-01-01T13:36:09.563Z,2.17
2023-01-01T13:38:45.989Z,2.40
2023-01-01T13:41:30.985Z,2.25
2023-01-01T13:44:00.501Z,1.80
2023-01-01T13:46:42.153Z,3.78
2023-01-01T13:49:14.582Z,4.53
2023-01-01T13:52:06.851Z,4.88
2023-01-01T13:54:46.277Z,4.28
2023-01-01T13:57:12.754Z,4.10
2023-01-01T13:59:46.556Z,4.90
2023-01-01T14:04:43.566Z,13.10
2023-01-01T14:07:48.934Z,26.27
2023-01-01T14:10:15.904Z,20.10
2023-01-01T14:12:42.348Z,23.48
2023-01-01T14:15:28.975Z,12.90
2023-01-01T14:17:57.962Z,12.65
2023-01-01T14:20:28.593Z,8.07
2023-01-01T14:22:55.064Z,8.60
2023-01-01T14:25:28.804Z,10.00
2023-01-01T14:30:21.737Z,9.10
2023-01-01T14:32:55.469Z,10.23
2023-01-01T14:37:48.739Z,7.07
2023-01-01T14:40:18.243Z,5.38
2023-01-01T14:42:45.776Z,10.82
2023-01-01T14:45:18.355Z,7.55
2023-01-01T14:47:48.434Z,5.20
2023-01-01T14:50:23.938Z,3.05
2023-01-01T14:52:52.143Z,3.55
2023-01-01T14:55:19.302Z,2.38
2023-01-01T14:57:46.917Z,2.70
2023-01-01T15:00:23.994Z,5.93
2023-01-01T15:02:50.635Z,5.20
2023-01-01T15:05:23.337Z,4.30
2023-01-01T15:07:59.544Z,4.35
2023-01-01T15:10:27.179Z,4.57
2023-01-01T15:12:53.940Z,6.03
2023-01-01T15:15:40.040Z,4.65
2023-01-01T15:18:07.176Z,4.45
2023-01-01T15:20:36.150Z,3.95
2023-01-01T15:23:09.785Z,4.10
2023-01-01T15:25:38.440Z,5.18
2023-01-01T15:28:05.125Z,3.97
2023-01-01T15:30:33.786Z,10.48
2023-01-01T15:33:15.727Z,4.85
2023-01-01T15:35:46.476Z,5.53
2023-01-01T15:38:34.617Z,5.90
2023-01-01T15:41:01.227Z,4.25
2023-01-01T15:43:29.795Z,4.00
2023-01-01T15:45:56.432Z,4.03
2023-01-01T15:48:46.279Z,3.60
2023-01-01T15:51:17.494Z,3.78
2023-01-01T15:53:49.509Z,3.95
2023-01-01T15:56:16.442Z,3.35
2023-01-01T15:58:54.146Z,3.65
2023-01-01T16:01:22.239Z,3.97
2023-01-01T16:03:50.539Z,3.50
2023-01-01T16:06:17.134Z,3.53
2023-01-01T16:08:43.988Z,3.72
2023-01-01T16:11:10.619Z,4.03
2023-01-01T16:13:37.073Z,3.28
2023-01-01T16:16:04.180Z,4.35
2023-01-01T16:18:30.682Z,4.22
2023-01-01T16:20:57.148Z,5.32
2023-01-01T16:23:23.842Z,3.90
2023-01-01T16:25:50.392Z,4.45
2023-01-01T16:28:16.950Z,4.45
2023-01-01T16:30:44.017Z,3.60
2023-01-01T16:33:14.223Z,5.80
2023-01-01T16:35:40.795Z,4.95
2023-01-01T16:38:07.242Z,5.80
2023-01-01T16:40:37.642Z,6.30
2023-01-01T16:43:05.855Z,7.25
2023-01-01T16:45:32.401Z,5.22
2023-01-01T16:47:58.909Z,5.88
2023-01-01T16:50:25.431Z,6.40
2023-01-01T16:52:51.991Z,6.18
2023-01-01T16:55:18.573Z,5.40
2023-01-01T16:57:47.366Z,6.50
2023-01-01T17:00:14.074Z,5.97
2023-01-01T17:02:40.925Z,5.40
2023-01-01T17:05:07.756Z,5.43
2023-01-01T17:07:34.263Z,4.63
2023-01-01T17:10:00.826Z,4.20
2023-01-01T17:12:27.338Z,4.53
2023-01-01T17:14:53.809Z,7.07
2023-01-01T17:17:20.261Z,8.15
2023-01-01T17:19:47.141Z,5.63
2023-01-01T17:22:13.617Z,7.43
2023-01-01T17:24:40.104Z,19.75
2023-01-01T17:27:06.586Z,13.27
2023-01-01T17:29:33.117Z,7.50
2023-01-01T17:31:59.622Z,7.97
2023-01-01T17:34:26.268Z,7.78
2023-01-01T17:36:52.718Z,18.40
2023-01-01T17:39:19.188Z,7.38
2023-01-01T17:41:46.031Z,8.13
2023-01-01T17:44:12.653Z,9.35
2023-01-01T17:46:40.504Z,16.20
2023-01-01T17:49:09.260Z,10.43
2023-01-01T17:51:35.765Z,6.47
2023-01-01T17:54:03.022Z,7.22
2023-01-01T17:56:29.584Z,6.28
2023-01-01T17:58:56.112Z,6.72
2023-01-01T18:01:22.785Z,5.43
2023-01-01T18:03:50.893Z,8.05
2023-01-01T18:06:17.364Z,5.88
2023-01-01T18:08:43.861Z,5.63
2023-01-01T18:11:10.319Z,3.88
2023-01-01T18:13:37.051Z,11.25
2023-01-01T18:16:04.328Z,5.00
2023-01-01T18:18:31.146Z,4.10
2023-01-01T18:21:07.708Z,4.22
2023-01-01T18:23:34.595Z,5.13
2023-01-01T18:26:05.595Z,6.22
2023-01-01T18:28:32.505Z,8.82
2023-01-01T18:31:05.847Z,8.15
2023-01-01T18:33:33.488Z,4.20
2023-01-01T18:36:07.177Z,3.13
2023-01-01T18:41:05.789Z,4.07
2023-01-01T18:43:32.306Z,6.75
2023-01-01T18:45:58.898Z,3.38
2023-01-01T18:48:25.368Z,4.88
2023-01-01T18:50:51.822Z,2.90
2023-01-01T18:53:20.400Z,3.20
2023-01-01T18:55:47.958Z,3.60
2023-01-01T18:58:17.211Z,3.58
2023-01-01T19:00:43.812Z,2.35
2023-01-01T19:03:14.679Z,2.47
2023-01-01T19:05:41.209Z,3.35
2023-01-01T19:08:07.665Z,2.10
2023-01-01T19:10:43.089Z,1.70
2023-01-01T19:13:18.905Z,21.00
2023-01-01T19:15:47.086Z,6.63
2023-01-01T19:18:18.183Z,8.40
2023-01-01T19:20:44.810Z,12.32
2023-01-01T19:23:13.076Z,7.05
2023-01-01T19:25:40.002Z,5.80
2023-01-01T19:28:15.556Z,7.25
2023-01-01T19:30:42.518Z,5.05
2023-01-01T19:33:09.032Z,12.48
2023-01-01T19:35:36.262Z,6.55
2023-01-01T19:38:02.876Z,4.38
2023-01-01T19:40:29.817Z,4.25
2023-01-01T19:42:56.758Z,3.20
2023-01-01T19:45:24.847Z,4.28
2023-01-01T19:47:51.283Z,3.42
2023-01-01T19:50:17.859Z,10.07
2023-01-01T19:52:44.901Z,18.40
2023-01-01T19:55:11.423Z,4.95
2023-01-01T19:57:37.982Z,3.33
2023-01-01T20:00:05.147Z,2.78
2023-01-01T20:02:48.154Z,2.45
2023-01-01T20:05:15.216Z,10.85
2023-01-01T20:07:41.898Z,2.22
2023-01-01T20:10:08.582Z,1.90
2023-01-01T20:12:35.061Z,1.67
2023-01-01T20:15:01.646Z,3.97
2023-01-01T20:17:32.564Z,3.63
2023-01-01T20:19:59.019Z,3.13
2023-01-01T20:22:25.522Z,9.45
2023-01-01T20:24:52.031Z,1.88
2023-01-01T20:27:18.904Z,1.80
2023-01-01T20:29:45.428Z,1.40
2023-01-01T20:32:15.855Z,2.72
2023-01-01T20:34:42.518Z,1.65
2023-01-01T20:37:27.403Z,7.68
2023-01-01T20:39:53.953Z,2.08
2023-01-01T20:42:20.479Z,4.32
2023-01-01T20:44:46.981Z,7.80
2023-01-01T20:47:14.122Z,3.85
2023-01-01T20:49:40.874Z,3.20
2023-01-01T20:52:07.730Z,4.03
2023-01-01T20:54:34.217Z,5.50
2023-01-01T20:57:00.773Z,5.07
2023-01-01T20:59:36.353Z,4.05
2023-01-01T21:02:05.183Z,4.63
2023-01-01T21:04:31.959Z,4.07
2023-01-01T21:06:58.497Z,4.10
2023-01-01T21:09:24.977Z,5.60
2023-01-01T21:11:51.434Z,2.30
2023-01-01T21:14:19.008Z,8.57
2023-01-01T21:16:46.084Z,1.90
2023-01-01T21:19:12.718Z,1.48
2023-01-01T21:21:48.347Z,1.58
2023-01-01T21:24:41.049Z,5.57
2023-01-01T21:27:07.505Z,1.25
2023-01-01T21:29:34.008Z,1.85
2023-01-01T21:32:20.801Z,3.25
2023-01-01T21:34:49.110Z,4.00
2023-01-01T21:37:47.601Z,1.65
2023-01-01T21:40:37.232Z,2.63
2023-01-01T21:43:03.703Z,1.00
2023-01-01T21:45:35.077Z,1.50
2023-01-01T21:48:20.260Z,1.80
2023-01-01T21:50:47.835Z,32.97
2023-01-01T21:53:18.713Z,2.97
2023-01-01T21:55:52.398Z,1.98
2023-01-01T22:01:12.779Z,1.15
2023-01-01T22:03:39.613Z,1.17
2023-01-01T22:06:14.594Z,0.90
2023-01-01T22:08:44.492Z,3.50
2023-01-01T22:11:23.140Z,3.90
2023-01-01T22:13:49.649Z,1.38
2023-01-01T22:16:16.718Z,3.40
2023-01-01T22:18:43.303Z,1.38
2023-01-01T22:21:14.915Z,1.20
2023-01-01T22:23:41.781Z,1.67
2023-01-01T22:26:14.245Z,1.15
2023-01-01T22:28:42.360Z,1.40
2023-01-01T22:31:10.318Z,1.58
2023-01-01T22:33:38.186Z,0.95
2023-01-01T22:36:15.612Z,1.10
2023-01-01T22:38:42.597Z,2.05
2023-01-01T22:41:09.544Z,1.50
2023-01-01T22:43:38.679Z,1.42
2023-01-01T22:46:28.285Z,2.33
2023-01-01T22:48:58.419Z,5.20
2023-01-01T22:51:27.320Z,1.50
2023-01-01T22:53:53.811Z,1.70
2023-01-01T22:56:20.377Z,1.13
2023-01-01T22:58:49.236Z,1.00
2023-01-01T23:01:19.675Z,2.28
2023-01-01T23:03:46.145Z,1.00
2023-01-01T23:06:12.728Z,1.10
2023-01-01T23:08:39.211Z,1.00
2023-01-01T23:11:05.865Z,1.75
2023-01-01T23:13:50.810Z,1.13
2023-01-01T23:16:17.355Z,3.90
2023-01-01T23:18:43.888Z,1.83
2023-01-01T23:21:15.600Z,1.30
2023-01-01T23:23:42.405Z,1.10
2023-01-01T23:26:09.005Z,1.00
2023-01-01T23:28:35.860Z,1.30
2023-01-01T23:31:03.732Z,1.50
2023-01-01T23:33:31.223Z,0.75
2023-01-01T23:35:57.976Z,0.90
2023-01-01T23:38:25.051Z,1.27
2023-01-01T23:40:51.544Z,1.13
2023-01-01T23:43:18.028Z,2.45
2023-01-01T23:45:44.887Z,1.40
2023-01-01T23:48:11.572Z,2.70
2023-01-01T23:50:38.271Z,1.27
2023-01-01T23:53:04.719Z,0.90
2023-01-01T23:55:31.231Z,1.20
2023-01-01T23:57:57.694Z,0.93
